createdAt,value
2018-07-12T00:02:23.482Z,5.13
2018-07-12T00:04:53.591Z,6.33
2018-07-12T00:07:20.762Z,8.60
2018-07-12T00:09:47.899Z,5.90
2018-07-12T00:12:15.048Z,4.40
2018-07-12T00:14:42.193Z,7.00
2018-07-12T00:17:09.352Z,5.93
2018-07-12T00:19:36.478Z,7.17
2018-07-12T00:22:03.622Z,4.03
2018-07-12T00:24:30.798Z,5.70
2018-07-12T00:26:57.955Z,5.97
2018-07-12T00:29:25.116Z,5.60
2018-07-12T00:31:52.260Z,5.33
2018-07-12T00:34:19.392Z,6.97
2018-07-12T00:36:46.569Z,7.00
2018-07-12T00:39:13.717Z,5.73
2018-07-12T00:41:40.869Z,6.30
2018-07-12T00:44:08.045Z,11.70
2018-07-12T00:46:35.199Z,5.07
2018-07-12T00:49:02.343Z,5.10
2018-07-12T00:51:29.514Z,8.57
2018-07-12T00:53:56.817Z,5.27
2018-07-12T00:56:23.969Z,5.10
2018-07-12T00:58:51.411Z,5.97
2018-07-12T01:01:18.584Z,5.30
2018-07-12T01:03:45.809Z,5.27
2018-07-12T01:06:12.969Z,8.10
2018-07-12T01:08:40.138Z,7.70
2018-07-12T01:11:07.293Z,6.27
2018-07-12T01:13:34.483Z,5.40
2018-07-12T01:16:01.628Z,5.47
2018-07-12T01:18:28.797Z,5.33
2018-07-12T01:20:55.977Z,6.67
2018-07-12T01:23:23.129Z,5.13
2018-07-12T01:25:50.605Z,5.60
2018-07-12T01:28:17.749Z,7.57
2018-07-12T01:30:44.897Z,6.67
2018-07-12T01:33:12.518Z,5.83
2018-07-12T01:35:39.694Z,8.50
2018-07-12T01:38:06.837Z,8.87
2018-07-12T01:40:34.260Z,11.10
2018-07-12T01:43:01.386Z,8.27
2018-07-12T01:45:28.534Z,8.23
2018-07-12T01:47:55.779Z,12.20
2018-07-12T01:50:23.042Z,9.40
2018-07-12T01:52:50.205Z,8.77
2018-07-12T01:55:17.354Z,8.30
2018-07-12T01:57:44.518Z,9.07
2018-07-12T02:00:11.701Z,9.17
2018-07-12T02:02:38.881Z,7.97
2018-07-12T02:05:06.028Z,8.27
2018-07-12T02:07:33.170Z,8.00
2018-07-12T02:10:00.367Z,9.20
2018-07-12T02:12:27.509Z,8.20
2018-07-12T02:14:54.658Z,8.20
2018-07-12T02:17:21.830Z,8.23
2018-07-12T02:19:48.982Z,8.47
2018-07-12T02:22:16.118Z,8.07
2018-07-12T02:24:43.286Z,6.53
2018-07-12T02:27:10.461Z,7.60
2018-07-12T02:29:37.645Z,8.20
2018-07-12T02:32:04.811Z,8.10
2018-07-12T02:34:32.002Z,7.47
2018-07-12T02:36:59.795Z,7.43
2018-07-12T02:39:27.206Z,7.53
2018-07-12T02:41:54.873Z,7.23
2018-07-12T02:44:22.025Z,8.40
2018-07-12T02:46:49.170Z,8.00
2018-07-12T02:49:16.797Z,9.27
2018-07-12T02:51:44.327Z,8.80
2018-07-12T02:54:11.493Z,8.53
2018-07-12T02:56:38.771Z,9.00
2018-07-12T02:59:05.957Z,8.90
2018-07-12T03:01:33.161Z,10.40
2018-07-12T03:04:00.323Z,8.53
2018-07-12T03:06:27.466Z,7.90
2018-07-12T03:08:54.605Z,9.10
2018-07-12T03:11:21.773Z,8.67
2018-07-12T03:13:49.184Z,8.77
2018-07-12T03:16:16.341Z,10.00
2018-07-12T03:18:43.480Z,8.17
2018-07-12T03:21:10.650Z,10.37
2018-07-12T03:23:37.786Z,8.60
2018-07-12T03:26:04.938Z,9.83
2018-07-12T03:28:32.078Z,8.33
2018-07-12T03:30:59.225Z,8.77
2018-07-12T03:33:26.364Z,8.57
2018-07-12T03:35:53.505Z,7.87
2018-07-12T03:38:20.798Z,9.60
2018-07-12T03:40:47.938Z,9.10
2018-07-12T03:43:15.089Z,9.37
2018-07-12T03:45:42.225Z,9.20
2018-07-12T03:48:09.381Z,9.17
2018-07-12T03:50:36.527Z,8.57
2018-07-12T03:53:03.681Z,10.00
2018-07-12T03:55:30.826Z,8.40
2018-07-12T03:57:57.988Z,8.07
2018-07-12T04:00:25.165Z,10.00
2018-07-12T04:02:52.322Z,8.70
2018-07-12T04:05:19.458Z,9.30
2018-07-12T04:07:46.613Z,9.60
2018-07-12T04:10:13.769Z,9.33
2018-07-12T04:12:40.949Z,9.97
2018-07-12T04:15:08.086Z,11.10
2018-07-12T04:17:35.465Z,9.40
2018-07-12T04:20:03.972Z,8.70
2018-07-12T04:22:32.349Z,10.40
2018-07-12T04:24:59.490Z,8.87
2018-07-12T04:27:26.861Z,9.73
2018-07-12T04:29:55.331Z,11.20
2018-07-12T04:32:22.501Z,9.53
2018-07-12T04:34:50.277Z,10.53
2018-07-12T04:37:18.139Z,11.57
2018-07-12T04:39:45.481Z,11.47
2018-07-12T04:42:12.677Z,12.37
2018-07-12T04:44:39.957Z,13.23
2018-07-12T04:47:07.225Z,12.23
2018-07-12T04:49:34.385Z,12.90
2018-07-12T04:52:01.553Z,9.90
2018-07-12T04:54:29.220Z,11.70
2018-07-12T04:56:56.357Z,14.83
2018-07-12T04:59:23.513Z,14.63
2018-07-12T05:01:50.704Z,13.00
2018-07-12T05:04:17.854Z,14.73
2018-07-12T05:06:45.007Z,12.40
2018-07-12T05:09:12.169Z,12.13
2018-07-12T05:11:39.317Z,11.50
2018-07-12T05:14:06.477Z,12.80
2018-07-12T05:16:33.630Z,11.27
2018-07-12T05:19:00.781Z,13.37
2018-07-12T05:21:27.946Z,10.87
2018-07-12T05:23:55.150Z,13.63
2018-07-12T05:26:22.303Z,12.73
2018-07-12T05:28:49.481Z,12.40
2018-07-12T05:31:16.644Z,13.97
2018-07-12T05:33:43.786Z,12.07
2018-07-12T05:36:27.390Z,11.30
2018-07-12T05:38:55.512Z,13.00
2018-07-12T05:41:24.329Z,11.97
2018-07-12T05:43:52.533Z,13.23
2018-07-12T05:46:20.673Z,11.77
2018-07-12T05:48:48.640Z,12.77
2018-07-12T05:51:17.057Z,13.73
2018-07-12T05:53:45.178Z,12.97
2018-07-12T05:56:13.661Z,12.93
2018-07-12T05:58:41.742Z,11.43
2018-07-12T06:01:21.336Z,10.03
2018-07-12T06:03:49.421Z,11.90
2018-07-12T06:06:17.531Z,10.97
2018-07-12T06:08:45.663Z,11.67
2018-07-12T06:11:13.761Z,12.00
2018-07-12T06:13:41.963Z,10.30
2018-07-12T06:16:10.181Z,9.67
2018-07-12T06:18:38.257Z,11.10
2018-07-12T06:21:06.437Z,12.20
2018-07-12T06:23:34.565Z,13.40
2018-07-12T06:26:02.641Z,11.50
2018-07-12T06:28:30.756Z,11.57
2018-07-12T06:30:58.832Z,9.87
2018-07-12T06:33:27.026Z,10.40
2018-07-12T06:35:55.700Z,10.77
2018-07-12T06:38:24.089Z,10.27
2018-07-12T06:40:52.177Z,10.07
2018-07-12T06:43:20.305Z,10.60
2018-07-12T06:45:48.672Z,9.97
2018-07-12T06:48:16.816Z,10.40
2018-07-12T06:50:44.943Z,9.73
2018-07-12T06:53:13.037Z,9.13
2018-07-12T06:55:41.191Z,7.10
2018-07-12T07:00:42.871Z,7.27
2018-07-12T07:03:11.190Z,9.80
2018-07-12T07:05:39.350Z,9.03
2018-07-12T07:08:07.468Z,8.50
2018-07-12T07:10:35.549Z,11.67
2018-07-12T07:13:03.645Z,9.57
2018-07-12T07:15:31.906Z,8.80
2018-07-12T07:17:59.986Z,9.53
2018-07-12T07:20:28.061Z,9.17
2018-07-12T07:22:56.265Z,7.67
2018-07-12T07:25:24.400Z,9.13
2018-07-12T07:27:52.497Z,9.17
2018-07-12T07:30:20.632Z,8.23
2018-07-12T07:32:48.701Z,9.27
2018-07-12T07:35:16.790Z,7.37
2018-07-12T07:37:44.889Z,6.70
2018-07-12T07:40:13.058Z,7.03
2018-07-12T07:42:41.157Z,9.13
2018-07-12T07:45:09.366Z,8.03
2018-07-12T07:47:38.430Z,7.43
2018-07-12T07:50:07.045Z,6.27
2018-07-12T07:52:35.377Z,7.83
2018-07-12T07:55:03.537Z,8.63
2018-07-12T07:57:31.633Z,8.37
2018-07-12T07:59:59.785Z,9.17
2018-07-12T08:02:27.865Z,7.33
2018-07-12T08:04:56.577Z,12.53
2018-07-12T08:07:24.516Z,9.30
2018-07-12T08:09:52.861Z,8.90
2018-07-12T08:12:21.181Z,8.17
2018-07-12T08:14:49.299Z,8.77
2018-07-12T08:17:17.368Z,8.20
2018-07-12T08:19:46.244Z,7.40
2018-07-12T08:22:14.698Z,7.75
2018-07-12T08:24:42.972Z,8.93
2018-07-12T08:27:11.035Z,6.80
2018-07-12T08:29:39.117Z,7.30
2018-07-12T08:32:06.977Z,7.10
2018-07-12T08:34:35.351Z,7.50
2018-07-12T08:37:03.510Z,6.13
2018-07-12T08:39:31.656Z,7.80
2018-07-12T08:41:59.749Z,7.37
2018-07-12T08:44:27.830Z,6.50
2018-07-12T08:46:56.210Z,8.70
2018-07-12T08:49:24.330Z,8.63
2018-07-12T08:51:52.443Z,6.63
2018-07-12T08:54:20.531Z,7.40
2018-07-12T08:56:48.633Z,7.70
2018-07-12T08:59:16.778Z,6.90
2018-07-12T09:01:45.244Z,6.07
2018-07-12T09:04:13.529Z,8.30
2018-07-12T09:06:42.064Z,7.23
2018-07-12T09:09:10.163Z,6.47
2018-07-12T09:11:38.243Z,7.17
2018-07-12T09:14:06.358Z,6.20
2018-07-12T09:16:34.748Z,6.13
2018-07-12T09:19:02.930Z,6.37
2018-07-12T09:21:31.363Z,5.60
2018-07-12T09:23:59.481Z,6.67
2018-07-12T09:26:27.609Z,6.13
2018-07-12T09:28:55.881Z,6.13
2018-07-12T09:31:24.021Z,5.37
2018-07-12T09:33:52.122Z,5.87
2018-07-12T09:36:20.197Z,4.63
2018-07-12T09:38:52.116Z,5.37
2018-07-12T09:41:20.924Z,6.93
2018-07-12T09:43:49.598Z,5.83
2018-07-12T09:46:18.764Z,5.23
2018-07-12T09:48:48.287Z,5.00
2018-07-12T09:51:16.573Z,4.23
2018-07-12T09:53:45.750Z,5.90
2018-07-12T09:56:13.947Z,4.57
2018-07-12T09:58:42.238Z,5.80
2018-07-12T10:01:15.827Z,4.77
2018-07-12T10:03:45.892Z,4.73
2018-07-12T10:06:19.354Z,5.80
2018-07-12T10:08:52.680Z,5.43
2018-07-12T10:11:26.704Z,5.40
2018-07-12T10:13:56.344Z,4.95
2018-07-12T10:16:29.844Z,4.73
2018-07-12T10:18:57.912Z,5.00
2018-07-12T10:21:26.056Z,5.40
2018-07-12T10:23:54.222Z,4.80
2018-07-12T10:26:22.341Z,5.20
2018-07-12T10:28:51.043Z,4.77
2018-07-12T10:31:18.944Z,5.20
2018-07-12T10:33:47.065Z,4.17
2018-07-12T10:36:15.151Z,6.00
2018-07-12T10:38:43.237Z,4.40
2018-07-12T10:41:11.361Z,5.53
2018-07-12T10:43:39.473Z,5.00
2018-07-12T10:46:07.348Z,6.43
2018-07-12T10:48:35.571Z,4.67
2018-07-12T10:51:03.647Z,4.13
2018-07-12T10:53:31.729Z,4.83
2018-07-12T10:55:59.804Z,4.33
2018-07-12T10:58:27.888Z,3.87
2018-07-12T11:00:55.741Z,3.97
2018-07-12T11:03:23.818Z,5.03
2018-07-12T11:05:52.064Z,4.57
2018-07-12T11:08:20.161Z,4.30
2018-07-12T11:10:48.250Z,3.97
2018-07-12T11:13:19.576Z,4.77
2018-07-12T11:15:48.151Z,4.53
2018-07-12T11:18:16.233Z,4.33
2018-07-12T11:20:44.317Z,3.97
2018-07-12T11:23:12.402Z,4.50
2018-07-12T11:25:40.532Z,3.73
2018-07-12T11:28:08.680Z,4.17
2018-07-12T11:30:36.844Z,3.60
2018-07-12T11:33:16.421Z,3.27
2018-07-12T11:35:44.529Z,3.67
2018-07-12T11:38:12.592Z,4.37
2018-07-12T11:40:40.694Z,4.07
2018-07-12T11:43:08.780Z,3.93
2018-07-12T11:45:36.889Z,4.03
2018-07-12T11:48:05.181Z,3.80
2018-07-12T11:50:33.285Z,4.27
2018-07-12T11:53:01.404Z,4.87
2018-07-12T11:55:29.465Z,3.70
2018-07-12T11:57:57.541Z,3.70
2018-07-12T12:00:25.621Z,3.80
2018-07-12T12:02:53.712Z,3.70
2018-07-12T12:05:21.815Z,4.83
2018-07-12T12:07:49.903Z,4.00
2018-07-12T12:10:17.977Z,4.03
2018-07-12T12:12:46.056Z,4.80
2018-07-12T12:15:14.125Z,4.50
2018-07-12T12:17:42.235Z,4.60
2018-07-12T12:20:10.309Z,4.10
2018-07-12T12:22:38.392Z,3.80
2018-07-12T12:25:06.468Z,4.10
2018-07-12T12:27:34.601Z,4.30
2018-07-12T12:30:02.655Z,4.20
2018-07-12T12:32:30.740Z,3.37
2018-07-12T12:34:58.840Z,3.83
2018-07-12T12:37:26.907Z,3.70
2018-07-12T12:39:54.990Z,4.30
2018-07-12T12:42:23.092Z,3.60
2018-07-12T12:44:51.171Z,3.67
2018-07-12T12:47:19.262Z,4.10
2018-07-12T12:49:47.345Z,3.97
2018-07-12T12:52:15.609Z,2.97
2018-07-12T12:54:43.691Z,3.67
2018-07-12T12:57:11.861Z,3.40
2018-07-12T12:59:39.945Z,4.93
2018-07-12T13:02:08.038Z,4.10
2018-07-12T13:04:36.169Z,3.90
2018-07-12T13:07:04.302Z,4.03
2018-07-12T13:09:33.040Z,3.57
2018-07-12T13:12:01.540Z,3.50
2018-07-12T13:14:29.525Z,2.80
2018-07-12T13:16:57.542Z,3.30
2018-07-12T13:19:26.111Z,3.83
2018-07-12T13:21:54.225Z,3.40
2018-07-12T13:24:22.355Z,4.37
2018-07-12T13:26:50.420Z,3.93
2018-07-12T13:29:18.515Z,4.30
2018-07-12T13:31:47.490Z,3.37
2018-07-12T13:34:15.548Z,3.47
2018-07-12T13:36:43.664Z,4.03
2018-07-12T13:39:11.830Z,3.23
2018-07-12T13:41:39.957Z,3.57
2018-07-12T13:44:19.423Z,4.23
2018-07-12T13:46:48.611Z,3.57
2018-07-12T13:49:16.901Z,3.57
2018-07-12T13:51:46.364Z,4.47
2018-07-12T13:54:14.660Z,3.23
2018-07-12T13:56:42.813Z,3.33
2018-07-12T13:59:11.253Z,3.77
2018-07-12T14:01:39.329Z,3.10
2018-07-12T14:04:08.373Z,3.70
2018-07-12T14:06:36.664Z,3.80
2018-07-12T14:09:06.466Z,6.80
2018-07-12T14:11:34.593Z,3.43
2018-07-12T14:14:02.702Z,4.23
2018-07-12T14:16:30.786Z,2.90
2018-07-12T14:18:58.882Z,3.30
2018-07-12T14:21:27.059Z,3.53
2018-07-12T14:23:55.164Z,3.07
2018-07-12T14:26:23.387Z,3.23
2018-07-12T14:28:51.465Z,2.90
2018-07-12T14:31:19.551Z,7.07
2018-07-12T14:33:48.078Z,3.00
2018-07-12T14:36:16.190Z,3.00
2018-07-12T14:38:44.488Z,2.70
2018-07-12T14:41:12.606Z,3.67
2018-07-12T14:43:40.747Z,3.60
2018-07-12T14:46:08.945Z,3.73
2018-07-12T14:48:37.074Z,6.27
2018-07-12T14:51:05.198Z,2.80
2018-07-12T14:53:33.262Z,2.90
2018-07-12T14:56:01.361Z,2.70
2018-07-12T14:58:29.442Z,3.37
2018-07-12T15:00:57.392Z,4.60
2018-07-12T15:03:25.522Z,3.00
2018-07-12T15:05:53.625Z,3.10
2018-07-12T15:08:21.724Z,3.10
2018-07-12T15:10:49.816Z,3.17
2018-07-12T15:13:18.185Z,3.30
2018-07-12T15:15:46.075Z,3.03
2018-07-12T15:18:14.250Z,2.50
2018-07-12T15:20:42.423Z,3.00
2018-07-12T15:23:10.506Z,2.80
2018-07-12T15:25:38.626Z,4.07
2018-07-12T15:28:06.727Z,3.77
2018-07-12T15:30:34.756Z,3.03
2018-07-12T15:33:02.885Z,3.30
2018-07-12T15:35:31.036Z,3.03
2018-07-12T15:37:59.068Z,3.87
2018-07-12T15:40:27.233Z,3.40
2018-07-12T15:42:55.341Z,3.50
2018-07-12T15:45:23.658Z,3.23
2018-07-12T15:47:51.737Z,3.53
2018-07-12T15:50:21.538Z,3.47
2018-07-12T15:52:49.683Z,4.80
2018-07-12T15:55:17.733Z,2.60
2018-07-12T15:57:46.001Z,3.43
2018-07-12T16:00:14.094Z,3.10
2018-07-12T16:02:42.779Z,3.20
2018-07-12T16:05:11.037Z,3.03
2018-07-12T16:07:38.966Z,3.17
2018-07-12T16:10:07.060Z,3.53
2018-07-12T16:12:35.234Z,3.33
2018-07-12T16:15:03.345Z,3.50
2018-07-12T16:17:31.473Z,2.80
2018-07-12T16:19:59.550Z,3.23
2018-07-12T16:22:30.016Z,4.00
2018-07-12T16:24:58.057Z,3.20
2018-07-12T16:27:26.470Z,6.00
2018-07-12T16:29:54.621Z,3.10
2018-07-12T16:32:22.651Z,2.63
2018-07-12T16:34:50.914Z,2.80
2018-07-12T16:37:18.990Z,4.23
2018-07-12T16:39:47.065Z,3.00
2018-07-12T16:42:15.185Z,3.67
2018-07-12T16:44:43.288Z,3.10
2018-07-12T16:47:11.350Z,2.83
2018-07-12T16:49:39.422Z,4.97
2018-07-12T16:52:07.638Z,2.67
2018-07-12T16:54:35.797Z,3.20
2018-07-12T16:57:03.898Z,3.57
2018-07-12T16:59:32.253Z,3.30
2018-07-12T17:02:00.363Z,2.83
2018-07-12T17:04:28.220Z,2.40
2018-07-12T17:06:56.306Z,2.80
2018-07-12T17:09:24.395Z,2.63
2018-07-12T17:11:52.593Z,3.97
2018-07-12T17:14:20.689Z,3.17
2018-07-12T17:16:48.761Z,7.90
2018-07-12T17:19:16.825Z,2.70
2018-07-12T17:21:44.947Z,2.90
2018-07-12T17:24:17.205Z,2.83
2018-07-12T17:26:45.292Z,3.13
2018-07-12T17:29:14.528Z,3.77
2018-07-12T17:31:43.460Z,4.10
2018-07-12T17:34:11.862Z,2.80
2018-07-12T17:36:39.970Z,3.23
2018-07-12T17:39:08.653Z,2.77
2018-07-12T17:41:36.732Z,3.90
2018-07-12T17:44:04.940Z,3.07
2018-07-12T17:46:33.000Z,2.90
2018-07-12T17:49:01.074Z,3.30
2018-07-12T17:51:29.152Z,3.17
2018-07-12T17:53:57.441Z,3.10
2018-07-12T17:56:25.517Z,3.47
2018-07-12T17:58:53.597Z,2.30
2018-07-12T18:01:21.664Z,3.10
2018-07-12T18:03:49.746Z,3.30
2018-07-12T18:06:17.817Z,4.13
2018-07-12T18:08:45.939Z,3.10
2018-07-12T18:11:14.019Z,3.33
2018-07-12T18:13:42.125Z,3.37
2018-07-12T18:16:10.218Z,4.70
2018-07-12T18:18:38.313Z,3.20
2018-07-12T18:21:07.973Z,3.30
2018-07-12T18:23:36.185Z,3.20
2018-07-12T18:26:04.264Z,3.83
2018-07-12T18:28:32.368Z,5.40
2018-07-12T18:31:00.433Z,5.17
2018-07-12T18:33:28.624Z,3.40
2018-07-12T18:35:56.678Z,3.20
2018-07-12T18:38:24.756Z,3.37
2018-07-12T18:40:52.816Z,3.03
2018-07-12T18:43:20.912Z,3.40
2018-07-12T18:45:48.981Z,3.80
2018-07-12T18:48:17.095Z,5.00
2018-07-12T18:50:45.193Z,5.10
2018-07-12T18:53:13.405Z,9.67
2018-07-12T18:55:41.713Z,3.23
2018-07-12T18:58:09.961Z,3.30
2018-07-12T19:00:38.068Z,3.67
2018-07-12T19:03:06.273Z,6.87
2018-07-12T19:05:34.380Z,3.10
2018-07-12T19:08:02.458Z,3.73
2018-07-12T19:10:30.570Z,3.60
2018-07-12T19:12:58.806Z,4.10
2018-07-12T19:15:27.008Z,3.47
2018-07-12T19:17:54.993Z,5.90
2018-07-12T19:20:23.222Z,8.07
2018-07-12T19:22:52.001Z,6.73
2018-07-12T19:25:20.093Z,4.33
2018-07-12T19:27:48.190Z,11.73
2018-07-12T19:30:16.381Z,9.93
2018-07-12T19:32:44.482Z,6.80
2018-07-12T19:35:12.723Z,9.83
2018-07-12T19:37:40.962Z,6.37
2018-07-12T19:40:09.319Z,5.10
2018-07-12T19:42:37.448Z,6.17
2018-07-12T19:45:05.553Z,8.33
2018-07-12T19:47:33.661Z,10.63
2018-07-12T19:50:01.787Z,13.37
2018-07-12T19:55:32.829Z,9.67
2018-07-12T19:58:01.110Z,15.30
2018-07-12T20:00:29.192Z,11.87
2018-07-12T20:02:57.088Z,8.70
2018-07-12T20:05:25.181Z,12.70
2018-07-12T20:07:53.341Z,16.07
2018-07-12T20:10:21.421Z,5.90
2018-07-12T20:12:49.516Z,10.40
2018-07-12T20:15:17.606Z,9.73
2018-07-12T20:17:45.700Z,6.27
2018-07-12T20:20:13.548Z,6.00
2018-07-12T20:22:41.664Z,7.40
2018-07-12T20:25:09.740Z,8.40
2018-07-12T20:27:37.818Z,3.77
2018-07-12T20:30:06.105Z,5.00
2018-07-12T20:32:34.185Z,4.00
2018-07-12T20:35:02.263Z,8.67
2018-07-12T20:37:30.344Z,8.20
2018-07-12T20:39:58.452Z,3.90
2018-07-12T20:42:26.557Z,4.73
2018-07-12T20:44:54.710Z,3.93
2018-07-12T20:47:22.820Z,5.20
2018-07-12T20:49:50.909Z,4.53
2018-07-12T20:52:19.012Z,5.20
2018-07-12T20:54:47.274Z,4.73
2018-07-12T20:57:15.296Z,3.37
2018-07-12T20:59:44.157Z,4.47
2018-07-12T21:02:12.244Z,3.87
2018-07-12T21:04:40.441Z,4.30
2018-07-12T21:07:08.529Z,3.90
2018-07-12T21:09:36.639Z,3.67
2018-07-12T21:12:05.444Z,4.90
2018-07-12T21:14:34.187Z,3.97
2018-07-12T21:17:02.309Z,7.00
2018-07-12T21:19:30.413Z,4.37
2018-07-12T21:21:58.514Z,6.33
2018-07-12T21:24:27.325Z,4.70
2018-07-12T21:26:55.590Z,5.00
2018-07-12T21:29:23.822Z,5.20
2018-07-12T21:31:51.887Z,4.83
2018-07-12T21:34:19.978Z,5.33
2018-07-12T21:36:48.095Z,5.87
2018-07-12T21:39:16.617Z,9.00
2018-07-12T21:41:44.684Z,4.87
2018-07-12T21:44:12.768Z,5.20
2018-07-12T21:46:40.703Z,5.93
2018-07-12T21:49:08.824Z,7.00
2018-07-12T21:51:36.971Z,5.33
2018-07-12T21:54:04.988Z,6.27
2018-07-12T21:56:33.070Z,4.90
2018-07-12T21:59:01.169Z,5.87
2018-07-12T22:01:29.246Z,6.57
2018-07-12T22:03:57.334Z,5.93
2018-07-12T22:08:34.441Z,5.57
2018-07-12T22:11:03.789Z,6.17
2018-07-12T22:13:32.905Z,7.13
2018-07-12T22:16:00.997Z,6.60
2018-07-12T22:18:29.168Z,6.27
2018-07-12T22:20:57.261Z,8.10
2018-07-12T22:23:25.351Z,6.67
2018-07-12T22:25:53.437Z,6.30
2018-07-12T22:28:21.509Z,7.30
2018-07-12T22:30:49.594Z,7.07
2018-07-12T22:33:17.681Z,7.20
2018-07-12T22:35:45.764Z,9.27
2018-07-12T22:38:13.849Z,7.67
2018-07-12T22:40:41.971Z,8.47
2018-07-12T22:43:10.026Z,6.90
2018-07-12T22:45:38.119Z,7.10
2018-07-12T22:48:06.265Z,7.27
2018-07-12T22:50:34.280Z,8.37
2018-07-12T22:53:02.353Z,7.30
2018-07-12T22:55:30.429Z,7.20
2018-07-12T22:57:58.517Z,11.43
2018-07-12T23:00:26.609Z,7.63
2018-07-12T23:02:54.714Z,9.10
2018-07-12T23:05:22.783Z,8.23
2018-07-12T23:07:50.863Z,7.63
2018-07-12T23:10:18.936Z,7.80
2018-07-12T23:12:47.045Z,7.87
2018-07-12T23:15:15.162Z,7.63
2018-07-12T23:17:43.246Z,7.60
2018-07-12T23:20:11.338Z,8.77
2018-07-12T23:22:39.457Z,9.80
2018-07-12T23:25:07.552Z,7.47
2018-07-12T23:27:35.629Z,7.77
2018-07-12T23:30:04.362Z,8.33
2018-07-12T23:32:32.477Z,8.60
2018-07-12T23:35:00.626Z,8.20
2018-07-12T23:37:28.701Z,8.87
2018-07-12T23:39:56.796Z,9.80
2018-07-12T23:42:24.905Z,8.70
2018-07-12T23:44:52.989Z,6.87
2018-07-12T23:47:21.080Z,9.50
2018-07-12T23:49:49.173Z,8.00
2018-07-12T23:52:17.281Z,8.47
2018-07-12T23:54:45.369Z,8.40
2018-07-12T23:57:13.441Z,8.23
2018-07-12T23:59:41.514Z,7.80
